createdAt,value
2022-10-17T00:02:23.759Z,91.93
2022-10-17T00:04:50.235Z,91.77
2022-10-17T00:07:16.630Z,91.80
2022-10-17T00:09:43.927Z,92.32
2022-10-17T00:12:10.606Z,92.37
2022-10-17T00:14:37.194Z,92.12
2022-10-17T00:17:03.561Z,91.42
2022-10-17T00:19:29.901Z,92.39
2022-10-17T00:21:56.340Z,92.20
2022-10-17T00:24:22.675Z,91.63
2022-10-17T00:26:48.990Z,91.65
2022-10-17T00:29:15.349Z,90.82
2022-10-17T00:31:41.914Z,91.91
2022-10-17T00:34:08.252Z,92.27
2022-10-17T00:36:34.924Z,91.58
2022-10-17T00:39:01.282Z,92.19
2022-10-17T00:41:31.123Z,92.24
2022-10-17T00:44:02.012Z,92.34
2022-10-17T00:46:34.126Z,92.40
2022-10-17T00:49:05.968Z,91.59
2022-10-17T00:51:41.614Z,92.47
2022-10-17T00:54:09.703Z,91.88
2022-10-17T00:56:36.849Z,91.93
2022-10-17T00:59:03.503Z,92.13
2022-10-17T01:01:30.092Z,93.30
2022-10-17T01:03:56.519Z,92.54
2022-10-17T01:06:22.878Z,92.87
2022-10-17T01:08:49.338Z,92.26
2022-10-17T01:11:49.733Z,93.50
2022-10-17T01:14:31.795Z,91.89
2022-10-17T01:17:05.783Z,92.56
2022-10-17T01:19:59.300Z,92.58
2022-10-17T01:22:36.903Z,92.80
2022-10-17T01:25:17.418Z,93.30
2022-10-17T01:28:11.504Z,92.98
2022-10-17T01:30:55.256Z,93.27
2022-10-17T01:33:27.678Z,94.30
2022-10-17T01:36:09.454Z,94.31
2022-10-17T01:38:43.411Z,94.11
2022-10-17T01:41:28.742Z,94.23
2022-10-17T01:44:17.635Z,94.53
2022-10-17T01:46:49.684Z,94.84
2022-10-17T01:49:20.590Z,94.99
2022-10-17T01:51:51.590Z,94.77
2022-10-17T01:54:23.099Z,94.97
2022-10-17T01:56:56.500Z,95.30
2022-10-17T01:59:27.020Z,94.59
2022-10-17T02:01:56.226Z,94.51
2022-10-17T02:04:23.277Z,95.22
2022-10-17T02:06:49.666Z,94.97
2022-10-17T02:09:25.110Z,95.59
2022-10-17T02:12:16.262Z,95.05
2022-10-17T02:15:03.185Z,95.82
2022-10-17T02:17:42.711Z,96.29
2022-10-17T02:20:17.851Z,95.98
2022-10-17T02:22:54.065Z,96.26
2022-10-17T02:25:38.762Z,95.58
2022-10-17T02:28:14.156Z,94.59
2022-10-17T02:30:48.117Z,94.81
2022-10-17T02:33:35.427Z,95.01
2022-10-17T02:36:08.738Z,95.11
2022-10-17T02:38:35.597Z,94.51
2022-10-17T02:41:03.549Z,94.92
2022-10-17T02:43:30.207Z,94.76
2022-10-17T02:45:57.352Z,94.97
2022-10-17T02:48:38.680Z,95.65
2022-10-17T02:51:16.828Z,95.80
2022-10-17T02:54:24.416Z,95.06
2022-10-17T02:56:56.473Z,95.18
2022-10-17T02:59:25.902Z,95.26
2022-10-17T03:01:52.932Z,95.49
2022-10-17T03:04:19.481Z,95.61
2022-10-17T03:06:48.069Z,95.43
2022-10-17T03:09:14.907Z,94.89
2022-10-17T03:11:41.358Z,94.32
2022-10-17T03:14:07.700Z,93.80
2022-10-17T03:16:34.134Z,94.10
2022-10-17T03:19:00.470Z,94.59
2022-10-17T03:21:26.827Z,94.40
2022-10-17T03:23:53.233Z,95.12
2022-10-17T03:26:19.651Z,94.74
2022-10-17T03:28:47.625Z,95.11
2022-10-17T03:31:17.478Z,95.03
2022-10-17T03:33:43.839Z,95.45
2022-10-17T03:36:13.644Z,95.09
2022-10-17T03:38:40.373Z,95.21
2022-10-17T03:41:07.534Z,94.80
2022-10-17T03:43:33.962Z,94.79
2022-10-17T03:46:01.534Z,95.08
2022-10-17T03:48:29.575Z,94.98
2022-10-17T03:51:03.854Z,95.39
2022-10-17T03:53:30.335Z,95.65
2022-10-17T03:55:57.744Z,95.58
2022-10-17T03:58:24.122Z,95.51
2022-10-17T04:00:50.531Z,95.46
2022-10-17T04:03:17.288Z,95.89
2022-10-17T04:05:43.839Z,96.06
2022-10-17T04:08:10.244Z,96.29
2022-10-17T04:10:36.599Z,96.07
2022-10-17T04:13:03.007Z,95.64
2022-10-17T04:15:29.433Z,95.73
2022-10-17T04:17:55.838Z,95.86
2022-10-17T04:20:22.329Z,95.68
2022-10-17T04:22:48.663Z,96.15
2022-10-17T04:25:15.138Z,96.31
2022-10-17T04:27:41.552Z,95.93
2022-10-17T04:30:08.146Z,95.85
2022-10-17T04:32:38.006Z,95.83
2022-10-17T04:35:04.840Z,95.47
2022-10-17T04:37:31.284Z,95.67
2022-10-17T04:39:57.636Z,95.96
2022-10-17T04:42:24.020Z,95.59
2022-10-17T04:44:50.352Z,95.57
2022-10-17T04:47:16.739Z,95.23
2022-10-17T04:49:43.082Z,95.62
2022-10-17T04:52:09.398Z,96.15
2022-10-17T04:54:35.749Z,96.40
2022-10-17T04:57:02.083Z,96.22
2022-10-17T04:59:29.828Z,95.99
2022-10-17T05:01:56.172Z,96.03
2022-10-17T05:04:24.812Z,95.49
2022-10-17T05:06:51.363Z,95.53
2022-10-17T05:09:17.759Z,95.21
2022-10-17T05:11:44.182Z,95.76
2022-10-17T05:14:10.548Z,95.76
2022-10-17T05:16:36.953Z,95.06
2022-10-17T05:19:03.662Z,95.16
2022-10-17T05:21:30.507Z,95.72
2022-10-17T05:23:57.324Z,96.49
2022-10-17T05:26:24.576Z,95.79
2022-10-17T05:28:52.519Z,95.91
2022-10-17T05:31:19.203Z,96.09
2022-10-17T05:33:45.668Z,95.63
2022-10-17T05:36:12.023Z,95.77
2022-10-17T05:38:38.408Z,95.68
2022-10-17T05:41:06.029Z,95.56
2022-10-17T05:43:33.441Z,94.61
2022-10-17T05:46:04.089Z,95.02
2022-10-17T05:48:30.527Z,94.34
2022-10-17T05:50:59.206Z,94.90
2022-10-17T05:53:25.683Z,94.19
2022-10-17T05:56:02.761Z,93.49
2022-10-17T05:58:49.233Z,93.31
2022-10-17T06:01:16.483Z,92.84
2022-10-17T06:03:42.868Z,92.92
2022-10-17T06:06:12.411Z,94.31
2022-10-17T06:08:39.149Z,94.48
2022-10-17T06:11:09.172Z,94.27
2022-10-17T06:13:37.110Z,94.55
2022-10-17T06:16:03.485Z,94.98
2022-10-17T06:18:29.824Z,94.64
2022-10-17T06:21:03.516Z,93.81
2022-10-17T06:23:29.991Z,92.67
2022-10-17T06:26:01.299Z,91.04
2022-10-17T06:28:27.890Z,90.80
2022-10-17T06:30:54.349Z,89.95
2022-10-17T06:33:21.453Z,88.66
2022-10-17T06:35:54.707Z,87.34
2022-10-17T06:38:21.746Z,84.90
2022-10-17T06:40:48.220Z,84.77
2022-10-17T06:43:14.795Z,84.00
2022-10-17T06:45:41.829Z,84.06
2022-10-17T06:48:08.565Z,84.05
2022-10-17T06:50:35.169Z,84.07
2022-10-17T06:53:01.617Z,83.36
2022-10-17T06:55:28.060Z,82.94
2022-10-17T06:57:55.934Z,83.87
2022-10-17T07:00:23.957Z,83.43
2022-10-17T07:02:50.437Z,81.92
2022-10-17T07:05:17.249Z,80.63
2022-10-17T07:07:44.842Z,80.78
2022-10-17T07:10:12.804Z,78.57
2022-10-17T07:12:39.302Z,75.71
2022-10-17T07:15:06.094Z,74.12
2022-10-17T07:17:32.689Z,71.97
2022-10-17T07:19:59.108Z,73.16
2022-10-17T07:22:25.567Z,73.26
2022-10-17T07:24:52.029Z,75.06
2022-10-17T07:27:18.472Z,75.48
2022-10-17T07:29:44.936Z,75.08
2022-10-17T07:32:11.309Z,75.73
2022-10-17T07:34:37.939Z,76.05
2022-10-17T07:37:06.843Z,75.06
2022-10-17T07:39:35.615Z,75.96
2022-10-17T07:42:02.325Z,75.89
2022-10-17T07:44:28.749Z,76.66
2022-10-17T07:46:55.175Z,76.58
2022-10-17T07:49:21.644Z,76.27
2022-10-17T07:51:49.886Z,77.23
2022-10-17T07:54:17.721Z,77.48
2022-10-17T07:56:50.263Z,76.25
2022-10-17T07:59:18.547Z,74.39
2022-10-17T08:01:45.032Z,74.55
2022-10-17T08:04:12.429Z,74.23
2022-10-17T08:06:39.766Z,72.12
2022-10-17T08:09:06.631Z,72.06
2022-10-17T08:11:33.043Z,73.38
2022-10-17T08:13:59.495Z,72.90
2022-10-17T08:16:26.021Z,74.11
2022-10-17T08:18:53.754Z,75.40
2022-10-17T08:21:20.193Z,75.90
2022-10-17T08:23:46.636Z,76.65
2022-10-17T08:26:16.623Z,75.74
2022-10-17T08:28:44.287Z,77.23
2022-10-17T08:31:13.191Z,76.96
2022-10-17T08:33:40.713Z,76.07
2022-10-17T08:36:08.931Z,74.86
2022-10-17T08:38:38.514Z,75.10
2022-10-17T08:41:13.698Z,73.42
2022-10-17T08:43:49.236Z,71.66
2022-10-17T08:48:49.871Z,71.41
2022-10-17T08:51:22.879Z,71.74
2022-10-17T08:53:51.857Z,71.76
2022-10-17T08:59:18.867Z,68.63
2022-10-17T09:02:01.315Z,68.71
2022-10-17T09:04:49.298Z,68.46
2022-10-17T09:07:30.876Z,67.00
2022-10-17T09:10:03.149Z,69.47
2022-10-17T09:12:43.948Z,68.26
2022-10-17T09:15:26.534Z,68.54
2022-10-17T09:18:03.393Z,67.47
2022-10-17T09:20:47.474Z,67.86
2022-10-17T09:23:21.910Z,71.71
2022-10-17T09:25:52.238Z,70.91
2022-10-17T09:28:35.957Z,71.22
2022-10-17T09:31:06.826Z,69.44
2022-10-17T09:33:55.879Z,70.41
2022-10-17T09:36:24.987Z,70.38
2022-10-17T09:38:58.224Z,68.76
2022-10-17T09:41:45.240Z,68.74
2022-10-17T09:44:43.763Z,68.46
2022-10-17T09:47:30.751Z,69.54
2022-10-17T09:49:57.835Z,69.61
2022-10-17T09:52:33.756Z,67.00
2022-10-17T09:55:15.639Z,63.28
2022-10-17T09:58:11.635Z,62.65
2022-10-17T10:00:44.343Z,61.59
2022-10-17T10:03:24.115Z,62.06
2022-10-17T10:06:01.180Z,64.28
2022-10-17T10:08:37.132Z,65.51
2022-10-17T10:11:07.857Z,62.87
2022-10-17T10:13:36.080Z,61.81
2022-10-17T10:16:30.439Z,59.83
2022-10-17T10:18:58.120Z,59.50
2022-10-17T10:21:27.505Z,62.75
2022-10-17T10:24:06.680Z,62.72
2022-10-17T10:26:43.827Z,62.53
2022-10-17T10:29:31.263Z,61.22
2022-10-17T10:32:19.154Z,61.38
2022-10-17T10:34:59.338Z,60.03
2022-10-17T10:37:29.720Z,57.49
2022-10-17T10:40:15.579Z,55.17
2022-10-17T10:42:42.418Z,52.43
2022-10-17T10:45:35.947Z,55.00
2022-10-17T10:48:24.686Z,54.28
2022-10-17T10:51:14.822Z,54.15
2022-10-17T10:53:56.020Z,52.52
2022-10-17T10:56:35.095Z,54.86
2022-10-17T10:59:52.970Z,55.38
2022-10-17T11:02:27.459Z,56.96
2022-10-17T11:05:12.079Z,55.80
2022-10-17T11:07:45.459Z,52.24
2022-10-17T11:10:22.946Z,48.07
2022-10-17T11:13:10.624Z,44.11
2022-10-17T11:15:42.727Z,41.50
2022-10-17T11:18:22.321Z,41.03
2022-10-17T11:20:57.608Z,39.28
2022-10-17T11:23:38.396Z,37.91
2022-10-17T11:26:13.251Z,38.04
2022-10-17T11:28:39.801Z,38.56
2022-10-17T11:31:12.949Z,39.33
2022-10-17T11:33:39.317Z,39.51
2022-10-17T11:36:08.991Z,40.49
2022-10-17T11:38:47.834Z,37.87
2022-10-17T11:41:20.899Z,38.06
2022-10-17T11:43:53.102Z,39.57
2022-10-17T11:46:24.916Z,43.66
2022-10-17T11:49:41.856Z,43.49
2022-10-17T11:52:37.726Z,43.37
2022-10-17T11:55:20.373Z,46.84
2022-10-17T11:57:58.560Z,48.68
2022-10-17T12:00:55.006Z,45.41
2022-10-17T12:03:47.928Z,47.21
2022-10-17T12:06:29.492Z,44.98
2022-10-17T12:09:25.459Z,46.04
2022-10-17T12:11:57.427Z,43.85
2022-10-17T12:14:46.663Z,44.43
2022-10-17T12:17:22.344Z,42.37
2022-10-17T12:19:48.907Z,40.60
2022-10-17T12:22:19.667Z,40.42
2022-10-17T12:25:00.342Z,42.12
2022-10-17T12:27:37.018Z,38.58
2022-10-17T12:30:26.279Z,42.27
2022-10-17T12:33:06.711Z,45.44
2022-10-17T12:35:36.279Z,45.81
2022-10-17T12:38:13.813Z,42.31
2022-10-17T12:40:48.468Z,43.30
2022-10-17T12:43:17.913Z,43.02
2022-10-17T12:46:10.786Z,45.49
2022-10-17T12:48:37.160Z,46.14
2022-10-17T12:51:34.797Z,47.84
2022-10-17T12:54:14.924Z,46.95
2022-10-17T12:56:44.466Z,49.84
2022-10-17T12:59:16.355Z,46.34
2022-10-17T13:01:46.557Z,45.66
2022-10-17T13:04:13.374Z,45.29
2022-10-17T13:06:54.116Z,47.31
2022-10-17T13:09:32.543Z,45.25
2022-10-17T13:12:02.677Z,46.10
2022-10-17T13:14:32.490Z,44.50
2022-10-17T13:17:04.536Z,46.74
2022-10-17T13:19:42.048Z,45.52
2022-10-17T13:22:16.703Z,45.70
2022-10-17T13:24:43.382Z,47.06
2022-10-17T13:27:30.949Z,48.08
2022-10-17T13:29:59.576Z,48.33
2022-10-17T13:32:36.027Z,47.63
2022-10-17T13:35:14.815Z,46.68
2022-10-17T13:37:43.511Z,45.99
2022-10-17T13:40:44.716Z,45.13
2022-10-17T13:43:19.868Z,42.90
2022-10-17T13:45:55.066Z,41.27
2022-10-17T13:48:27.165Z,39.12
2022-10-17T13:51:00.386Z,37.74
2022-10-17T13:53:33.323Z,38.60
2022-10-17T13:56:33.940Z,40.01
2022-10-17T13:59:07.986Z,39.11
2022-10-17T14:01:34.772Z,37.28
2022-10-17T14:04:11.651Z,35.11
2022-10-17T14:06:49.283Z,36.56
2022-10-17T14:09:22.594Z,36.59
2022-10-17T14:12:12.522Z,37.81
2022-10-17T14:15:05.252Z,34.59
2022-10-17T14:17:29.790Z,33.07
2022-10-17T14:23:10.583Z,35.79
2022-10-17T14:25:40.175Z,36.38
2022-10-17T14:28:12.658Z,37.37
2022-10-17T14:30:56.158Z,37.38
2022-10-17T14:33:24.024Z,37.14
2022-10-17T14:35:55.615Z,36.57
2022-10-17T14:38:22.872Z,39.18
2022-10-17T14:41:30.307Z,42.93
2022-10-17T14:44:04.576Z,44.62
2022-10-17T14:46:31.228Z,48.83
2022-10-17T14:49:20.497Z,51.29
2022-10-17T14:52:18.796Z,52.85
2022-10-17T14:54:56.112Z,51.74
2022-10-17T14:57:27.984Z,50.83
2022-10-17T14:59:57.636Z,49.45
2022-10-17T15:02:29.898Z,51.32
2022-10-17T15:04:56.845Z,51.60
2022-10-17T15:07:23.869Z,50.80
2022-10-17T15:09:53.122Z,50.34
2022-10-17T15:12:22.776Z,49.23
2022-10-17T15:14:49.476Z,48.93
2022-10-17T15:17:20.760Z,49.35
2022-10-17T15:19:48.490Z,50.45
2022-10-17T15:22:16.060Z,51.50
2022-10-17T15:24:42.598Z,53.43
2022-10-17T15:27:16.607Z,56.65
2022-10-17T15:29:43.058Z,58.76
2022-10-17T15:32:09.515Z,60.21
2022-10-17T15:34:35.874Z,61.66
2022-10-17T15:37:04.851Z,62.39
2022-10-17T15:39:31.316Z,63.75
2022-10-17T15:41:58.697Z,64.51
2022-10-17T15:44:25.094Z,66.01
2022-10-17T15:46:51.567Z,66.85
2022-10-17T15:49:19.647Z,67.62
2022-10-17T15:51:51.701Z,68.29
2022-10-17T15:54:21.775Z,68.94
2022-10-17T15:56:53.950Z,69.46
2022-10-17T15:59:25.874Z,69.41
2022-10-17T16:01:52.476Z,69.67
2022-10-17T16:04:18.949Z,69.99
2022-10-17T16:06:45.476Z,70.90
2022-10-17T16:09:11.911Z,71.89
2022-10-17T16:11:41.411Z,72.64
2022-10-17T16:14:15.238Z,73.09
2022-10-17T16:16:41.766Z,74.35
2022-10-17T16:19:08.475Z,74.85
2022-10-17T16:21:39.783Z,75.63
2022-10-17T16:24:06.473Z,75.73
2022-10-17T16:26:32.966Z,76.44
2022-10-17T16:29:02.753Z,76.08
2022-10-17T16:31:33.059Z,76.49
2022-10-17T16:34:01.391Z,76.51
2022-10-17T16:36:28.090Z,76.88
2022-10-17T16:38:54.578Z,77.16
2022-10-17T16:41:29.903Z,77.62
2022-10-17T16:43:58.806Z,78.12
2022-10-17T16:46:26.811Z,78.98
2022-10-17T16:48:53.827Z,78.15
2022-10-17T16:51:20.731Z,77.95
2022-10-17T16:53:50.099Z,77.92
2022-10-17T16:56:18.741Z,79.28
2022-10-17T16:58:46.015Z,78.66
2022-10-17T17:01:15.418Z,79.82
2022-10-17T17:03:43.339Z,79.68
2022-10-17T17:06:14.318Z,80.12
2022-10-17T17:08:42.063Z,79.48
2022-10-17T17:11:10.416Z,79.59
2022-10-17T17:13:37.635Z,79.87
2022-10-17T17:16:05.449Z,80.33
2022-10-17T17:18:32.154Z,80.31
2022-10-17T17:21:04.781Z,80.65
2022-10-17T17:23:33.764Z,80.38
2022-10-17T17:26:11.758Z,80.71
2022-10-17T17:28:39.156Z,80.77
2022-10-17T17:31:10.639Z,80.95
2022-10-17T17:33:39.049Z,81.00
2022-10-17T17:36:06.411Z,80.89
2022-10-17T17:38:35.691Z,80.94
2022-10-17T17:41:03.195Z,81.01
2022-10-17T17:43:30.148Z,81.07
2022-10-17T17:46:00.976Z,81.31
2022-10-17T17:48:27.339Z,82.28
2022-10-17T17:50:53.751Z,83.36
2022-10-17T17:53:20.096Z,82.88
2022-10-17T17:55:46.648Z,83.38
2022-10-17T17:58:13.288Z,83.40
2022-10-17T18:00:40.568Z,83.50
2022-10-17T18:03:07.380Z,84.24
2022-10-17T18:05:34.021Z,83.79
2022-10-17T18:08:00.369Z,84.17
2022-10-17T18:10:28.335Z,83.57
2022-10-17T18:12:54.698Z,83.48
2022-10-17T18:15:21.113Z,83.55
2022-10-17T18:17:47.761Z,83.04
2022-10-17T18:20:14.096Z,83.16
2022-10-17T18:22:40.515Z,82.81
2022-10-17T18:25:07.328Z,83.09
2022-10-17T18:27:33.891Z,83.42
2022-10-17T18:30:00.218Z,83.27
2022-10-17T18:32:31.098Z,82.61
2022-10-17T18:34:57.867Z,82.74
2022-10-17T18:37:24.289Z,83.06
2022-10-17T18:39:52.649Z,83.20
2022-10-17T18:42:18.988Z,83.18
2022-10-17T18:44:47.742Z,83.80
2022-10-17T18:47:14.143Z,84.14
2022-10-17T18:49:40.677Z,84.32
2022-10-17T18:52:07.055Z,84.93
2022-10-17T18:54:34.601Z,84.59
2022-10-17T18:57:01.229Z,84.72
2022-10-17T18:59:27.791Z,84.39
2022-10-17T19:01:54.321Z,84.76
2022-10-17T19:04:21.175Z,84.40
2022-10-17T19:06:48.519Z,85.15
2022-10-17T19:09:15.268Z,85.39
2022-10-17T19:11:43.252Z,85.34
2022-10-17T19:14:14.405Z,85.35
2022-10-17T19:16:46.664Z,85.50
2022-10-17T19:19:16.137Z,85.29
2022-10-17T19:21:42.950Z,85.82
2022-10-17T19:24:13.695Z,86.00
2022-10-17T19:26:41.265Z,86.35
2022-10-17T19:29:07.812Z,86.82
2022-10-17T19:31:35.652Z,85.92
2022-10-17T19:34:02.173Z,85.92
2022-10-17T19:36:33.654Z,85.94
2022-10-17T19:39:02.845Z,86.29
2022-10-17T19:41:29.411Z,85.98
2022-10-17T19:43:55.986Z,87.21
2022-10-17T19:46:24.935Z,86.79
2022-10-17T19:48:51.791Z,86.62
2022-10-17T19:51:20.736Z,87.33
2022-10-17T19:53:47.616Z,87.90
2022-10-17T19:56:14.171Z,87.53
2022-10-17T19:58:45.262Z,87.84
2022-10-17T20:01:26.726Z,87.54
2022-10-17T20:03:53.767Z,88.09
2022-10-17T20:06:21.397Z,88.27
2022-10-17T20:08:48.888Z,88.54
2022-10-17T20:11:22.370Z,88.29
2022-10-17T20:13:48.751Z,88.36
2022-10-17T20:16:23.069Z,88.35
2022-10-17T20:18:51.231Z,89.37
2022-10-17T20:21:25.083Z,89.16
2022-10-17T20:23:51.516Z,88.69
2022-10-17T20:26:38.617Z,88.07
2022-10-17T20:29:10.424Z,88.47
2022-10-17T20:31:39.391Z,89.13
2022-10-17T20:34:05.982Z,89.92
2022-10-17T20:36:36.522Z,89.85
2022-10-17T20:39:05.387Z,90.04
2022-10-17T20:41:31.805Z,90.26
2022-10-17T20:43:59.268Z,90.26
2022-10-17T20:49:17.567Z,90.93
2022-10-17T20:51:44.828Z,91.02
2022-10-17T20:54:12.594Z,89.20
2022-10-17T20:56:39.789Z,90.26
2022-10-17T20:59:10.594Z,90.39
2022-10-17T21:01:40.460Z,91.27
2022-10-17T21:04:33.456Z,92.14
2022-10-17T21:06:53.495Z,92.12
2022-10-17T21:09:20.325Z,92.42
2022-10-17T21:11:48.259Z,92.01
2022-10-17T21:14:16.659Z,90.92
2022-10-17T21:16:43.298Z,91.57
2022-10-17T21:19:11.529Z,92.25
2022-10-17T21:21:40.463Z,91.47
2022-10-17T21:24:12.864Z,92.80
2022-10-17T21:26:40.432Z,91.42
2022-10-17T21:29:07.788Z,91.00
2022-10-17T21:31:37.416Z,92.00
2022-10-17T21:34:27.694Z,91.70
2022-10-17T21:36:54.068Z,91.69
2022-10-17T21:39:21.844Z,91.99
2022-10-17T21:41:48.331Z,91.69
2022-10-17T21:44:20.841Z,91.83
2022-10-17T21:46:48.011Z,91.91
2022-10-17T21:49:17.322Z,91.94
2022-10-17T21:51:44.797Z,91.12
2022-10-17T21:54:11.423Z,91.04
2022-10-17T21:56:37.730Z,91.20
2022-10-17T21:59:04.829Z,90.48
2022-10-17T22:01:38.810Z,91.23
2022-10-17T22:04:07.771Z,90.54
2022-10-17T22:06:40.056Z,91.65
2022-10-17T22:09:10.067Z,90.11
2022-10-17T22:11:36.615Z,89.80
2022-10-17T22:14:10.732Z,90.59
2022-10-17T22:16:37.808Z,89.76
2022-10-17T22:19:06.655Z,90.23
2022-10-17T22:21:34.865Z,90.04
2022-10-17T22:24:04.444Z,90.78
2022-10-17T22:26:33.044Z,90.69
2022-10-17T22:28:59.657Z,90.36
2022-10-17T22:31:26.434Z,90.58
2022-10-17T22:33:55.964Z,90.87
2022-10-17T22:36:22.542Z,90.46
2022-10-17T22:38:48.890Z,90.58
2022-10-17T22:41:15.268Z,91.61
2022-10-17T22:43:41.598Z,91.92
2022-10-17T22:46:08.416Z,91.38
2022-10-17T22:48:35.193Z,91.26
2022-10-17T22:51:02.652Z,92.09
2022-10-17T22:53:29.913Z,92.05
2022-10-17T22:56:03.730Z,91.83
2022-10-17T22:58:31.457Z,91.37
2022-10-17T23:00:58.644Z,92.49
2022-10-17T23:03:27.282Z,92.12
2022-10-17T23:05:54.824Z,92.06
2022-10-17T23:08:21.333Z,92.96
2022-10-17T23:10:48.148Z,92.00
2022-10-17T23:13:15.858Z,92.28
2022-10-17T23:15:43.211Z,92.49
2022-10-17T23:18:10.259Z,91.82
2022-10-17T23:20:37.811Z,91.35
2022-10-17T23:23:04.803Z,91.84
2022-10-17T23:25:33.785Z,91.79
2022-10-17T23:28:00.749Z,91.54
2022-10-17T23:30:27.288Z,92.11
2022-10-17T23:32:53.776Z,92.37
2022-10-17T23:35:20.149Z,92.47
2022-10-17T23:37:46.512Z,92.19
2022-10-17T23:40:13.104Z,92.08
2022-10-17T23:42:39.568Z,92.61
2022-10-17T23:45:06.654Z,92.14
2022-10-17T23:47:33.375Z,92.91
2022-10-17T23:50:00.096Z,92.55
2022-10-17T23:52:26.482Z,93.20
2022-10-17T23:54:52.963Z,92.57
2022-10-17T23:57:19.474Z,92.73
2022-10-17T23:59:45.883Z,92.67
